Time;durP1;ratioP1;P1;durP2;ratioP2;P2;SDS_P1;SDS_P2;PMS_P1;PMS_P2;Temp;Humidity;BMP_temperature;BMP_pressure;BME280_temperature;BME280_humidity;BME280_pressure;Samples;Min_cycle;Max_cycle;Signal;HPM_P1;HPM_P2
2021/05/17 00:00:09;;;;;;;3.57;2.53;;;11.80;99.90;;;;;;4155843;28;20420;-67
2021/05/17 00:02:11;;;;;;;2.07;1.83;;;11.80;99.90;;;;;;4153520;28;20049;-65
2021/05/17 00:04:14;;;;;;;6.17;2.60;;;11.80;99.90;;;;;;4155858;28;20037;-67
2021/05/17 00:06:16;;;;;;;8.10;2.30;;;11.80;99.90;;;;;;4154412;28;20064;-65
2021/05/17 00:08:17;;;;;;;3.80;1.63;;;11.80;99.90;;;;;;4154770;28;20037;-66
2021/05/17 00:10:19;;;;;;;6.17;2.17;;;11.70;99.90;;;;;;4155161;28;20119;-64
2021/05/17 00:12:20;;;;;;;4.50;2.13;;;11.70;99.90;;;;;;4154220;28;20046;-67
2021/05/17 00:14:24;;;;;;;6.07;2.63;;;11.80;99.90;;;;;;4155700;28;20088;-66
2021/05/17 00:16:26;;;;;;;5.90;2.00;;;11.80;99.90;;;;;;4153791;28;20095;-68
2021/05/17 00:18:27;;;;;;;3.67;2.33;;;11.80;99.90;;;;;;4155951;28;20026;-63
2021/05/17 00:20:28;;;;;;;2.47;1.80;;;11.80;99.90;;;;;;4151847;28;20690;-64
2021/05/17 00:22:31;;;;;;;4.07;1.90;;;11.80;99.90;;;;;;4155918;28;20103;-63
2021/05/17 00:24:32;;;;;;;4.27;1.83;;;11.80;99.90;;;;;;4153271;28;20084;-64
2021/05/17 00:26:34;;;;;;;5.97;2.50;;;11.90;99.90;;;;;;4155719;28;20083;-67
2021/05/17 00:28:35;;;;;;;8.67;2.37;;;11.90;99.90;;;;;;4154249;28;20037;-67
2021/05/17 00:30:37;;;;;;;3.47;2.00;;;11.90;99.90;;;;;;4155214;28;20084;-65
2021/05/17 00:32:38;;;;;;;4.47;2.40;;;11.80;99.90;;;;;;4153994;28;20037;-65
2021/05/17 00:34:39;;;;;;;3.23;2.60;;;11.80;99.90;;;;;;4155888;28;20037;-67
2021/05/17 00:36:41;;;;;;;4.60;2.43;;;11.80;99.90;;;;;;4154308;28;20779;-67
2021/05/17 00:38:42;;;;;;;4.07;2.33;;;11.80;99.90;;;;;;4155859;28;20037;-68
2021/05/17 00:40:44;;;;;;;14.80;3.47;;;11.90;99.90;;;;;;4154436;28;20076;-64
2021/05/17 00:42:46;;;;;;;5.47;2.53;;;11.90;99.90;;;;;;4154263;28;20041;-64
2021/05/17 00:44:47;;;;;;;2.40;2.20;;;11.80;99.90;;;;;;4155546;28;20033;-60
2021/05/17 00:46:50;;;;;;;4.93;2.17;;;11.80;99.90;;;;;;4156829;28;20079;-63
2021/05/17 00:48:52;;;;;;;4.13;1.83;;;11.80;99.90;;;;;;4158427;28;20033;-63
2021/05/17 00:50:54;;;;;;;3.43;1.90;;;11.80;99.90;;;;;;4156387;28;20079;-62
2021/05/17 00:52:57;;;;;;;3.27;2.03;;;11.80;99.90;;;;;;4158484;28;20045;-62
2021/05/17 00:54:58;;;;;;;8.97;2.20;;;11.70;99.90;;;;;;4156442;28;20084;-63
2021/05/17 00:56:59;;;;;;;3.30;1.87;;;11.80;99.90;;;;;;4158716;28;20424;-66
2021/05/17 00:59:00;;;;;;;4.27;1.57;;;11.70;99.90;;;;;;4156606;28;20018;-63
2021/05/17 01:01:04;;;;;;;7.70;1.83;;;11.70;99.90;;;;;;4158732;28;20045;-63
2021/05/17 01:03:08;;;;;;;11.97;2.37;;;11.70;99.90;;;;;;4156639;28;20033;-65
2021/05/17 01:05:11;;;;;;;2.60;1.93;;;11.70;99.90;;;;;;4158734;28;20033;-69
2021/05/17 01:07:14;;;;;;;2.17;1.57;;;11.70;99.90;;;;;;4156606;28;20037;-66
2021/05/17 01:09:15;;;;;;;4.10;2.10;;;11.70;99.90;;;;;;4158481;28;20033;-65
2021/05/17 01:11:18;;;;;;;3.47;1.87;;;11.70;99.90;;;;;;4156107;28;20041;-64
2021/05/17 01:13:20;;;;;;;2.47;1.63;;;11.70;99.90;;;;;;4158017;28;20056;-69
2021/05/17 01:15:22;;;;;;;4.63;1.73;;;11.70;99.90;;;;;;4156864;28;20037;-66
2021/05/17 01:17:27;;;;;;;4.77;2.03;;;11.70;99.90;;;;;;4156795;28;20088;-66
2021/05/17 01:19:42;;;;;;;3.07;2.00;;;11.70;99.90;;;;;;4157525;28;20034;-67
2021/05/17 01:21:52;;;;;;;7.87;1.90;;;11.70;99.90;;;;;;4157386;28;20091;-69
2021/05/17 01:23:56;;;;;;;4.83;1.87;;;11.70;99.90;;;;;;4156617;28;20045;-68
2021/05/17 01:25:59;;;;;;;4.97;1.50;;;11.80;99.90;;;;;;4156478;28;20060;-68
2021/05/17 01:28:01;;;;;;;3.93;1.63;;;11.80;99.90;;;;;;4157641;28;20030;-67
2021/05/17 01:30:04;;;;;;;5.87;1.60;;;11.80;99.90;;;;;;4155759;28;20103;-66
2021/05/17 01:32:07;;;;;;;3.90;1.70;;;11.80;99.90;;;;;;4157581;28;20037;-65
2021/05/17 01:34:09;;;;;;;10.87;3.17;;;11.80;99.90;;;;;;4155873;28;20045;-63
2021/05/17 01:36:13;;;;;;;2.50;1.83;;;11.80;99.90;;;;;;4144384;28;20522;-64
2021/05/17 01:38:16;;;;;;;5.63;1.97;;;11.80;99.90;;;;;;4139722;28;20096;-64
2021/05/17 01:40:20;;;;;;;3.93;2.30;;;11.80;99.90;;;;;;4141494;28;20100;-62
2021/05/17 01:42:23;;;;;;;3.37;1.70;;;11.70;99.90;;;;;;4153710;28;20033;-66
2021/05/17 01:44:25;;;;;;;6.53;1.93;;;11.80;99.90;;;;;;4157944;28;20029;-68
2021/05/17 01:46:29;;;;;;;9.17;1.57;;;11.70;99.90;;;;;;4156105;28;20509;-66
2021/05/17 01:48:33;;;;;;;2.20;1.23;;;11.80;99.90;;;;;;4157909;28;20037;-65
2021/05/17 01:50:36;;;;;;;9.57;2.07;;;11.80;99.90;;;;;;4153992;28;20046;-67
2021/05/17 01:52:38;;;;;;;2.40;1.70;;;11.80;99.90;;;;;;4155781;28;20597;-64
2021/05/17 01:54:42;;;;;;;4.50;2.10;;;11.80;99.90;;;;;;4156196;28;20041;-67
2021/05/17 01:56:46;;;;;;;10.13;1.87;;;11.90;99.90;;;;;;4157059;28;20115;-66
2021/05/17 01:58:48;;;;;;;4.13;1.50;;;11.90;99.90;;;;;;4156018;28;20075;-68
2021/05/17 02:00:50;;;;;;;2.57;1.77;;;11.90;99.90;;;;;;4156708;28;20050;-61
2021/05/17 02:02:51;;;;;;;3.77;1.60;;;11.90;99.90;;;;;;4156556;28;20021;-61
2021/05/17 02:04:56;;;;;;;5.23;1.53;;;11.90;99.90;;;;;;4156440;28;20071;-63
2021/05/17 02:06:57;;;;;;;5.93;1.60;;;11.90;99.90;;;;;;4155855;28;20044;-63
2021/05/17 02:08:58;;;;;;;8.03;2.13;;;11.90;99.90;;;;;;4156175;28;20029;-63
2021/05/17 02:11:00;;;;;;;5.37;1.43;;;11.90;99.90;;;;;;4157321;28;20420;-61
2021/05/17 02:13:03;;;;;;;3.47;1.60;;;11.90;99.90;;;;;;4154751;28;20053;-63
2021/05/17 02:15:05;;;;;;;4.07;1.80;;;11.90;99.90;;;;;;4157589;28;20029;-64
2021/05/17 02:17:07;;;;;;;1.37;1.23;;;11.90;99.90;;;;;;4155726;28;20037;-65
2021/05/17 02:19:08;;;;;;;4.83;1.30;;;11.90;99.90;;;;;;4157552;28;20064;-66
2021/05/17 02:21:11;;;;;;;7.07;2.93;;;11.80;99.90;;;;;;4153503;28;20045;-63
2021/05/17 02:23:15;;;;;;;3.43;1.87;;;11.80;99.90;;;;;;4157104;28;20059;-67
2021/05/17 02:25:16;;;;;;;9.63;2.67;;;11.80;99.90;;;;;;4155205;28;20017;-64
2021/05/17 02:27:18;;;;;;;5.17;1.50;;;11.70;99.90;;;;;;4157256;28;20095;-66
2021/05/17 02:29:20;;;;;;;4.70;1.63;;;11.60;99.90;;;;;;4155355;28;20137;-66
2021/05/17 02:31:21;;;;;;;3.53;1.53;;;11.60;99.90;;;;;;4156181;28;20037;-65
2021/05/17 02:33:23;;;;;;;3.77;1.33;;;11.50;99.90;;;;;;4155992;28;20045;-67
2021/05/17 02:35:24;;;;;;;2.40;1.50;;;11.40;99.90;;;;;;4156017;28;20845;-65
2021/05/17 02:37:26;;;;;;;1.93;1.70;;;11.40;99.90;;;;;;4155976;28;20464;-68
2021/05/17 02:39:28;;;;;;;5.00;1.40;;;11.40;99.90;;;;;;4155635;28;20030;-69
2021/05/17 02:41:34;;;;;;;3.37;1.57;;;11.40;99.90;;;;;;4156497;28;20075;-67
2021/05/17 02:43:36;;;;;;;4.07;1.60;;;11.30;99.90;;;;;;4155226;28;20029;-67
2021/05/17 02:45:39;;;;;;;4.00;1.63;;;11.30;99.90;;;;;;4156853;28;20041;-63
2021/05/17 02:47:40;;;;;;;5.90;1.63;;;11.20;99.90;;;;;;4155344;28;20087;-62
2021/05/17 02:49:42;;;;;;;3.20;1.57;;;11.10;99.90;;;;;;4156369;28;20564;-63
2021/05/17 02:51:43;;;;;;;2.63;1.20;;;11.00;99.90;;;;;;4154438;28;20088;-63
2021/05/17 02:53:50;;;;;;;2.47;1.00;;;11.00;99.90;;;;;;4156841;28;20029;-63
2021/05/17 02:55:54;;;;;;;8.00;1.60;;;11.00;99.90;;;;;;4155024;28;20029;-63
2021/05/17 02:58:06;;;;;;;1.93;1.20;;;10.90;99.90;;;;;;4156313;28;20485;-66
2021/05/17 03:00:10;;;;;;;3.23;1.40;;;10.90;99.90;;;;;;4155012;28;20033;-64
2021/05/17 03:02:16;;;;;;;2.57;1.37;;;10.90;99.90;;;;;;4156798;28;20127;-62
2021/05/17 03:04:20;;;;;;;5.23;1.43;;;10.90;99.90;;;;;;4155355;28;20371;-63
2021/05/17 03:06:21;;;;;;;1.90;1.30;;;10.90;99.90;;;;;;4156343;28;20469;-63
2021/05/17 03:08:27;;;;;;;3.93;1.30;;;10.90;99.90;;;;;;4154250;28;20034;-63
2021/05/17 03:10:30;;;;;;;2.77;1.37;;;10.90;99.90;;;;;;4156435;28;20025;-63
2021/05/17 03:12:33;;;;;;;4.50;2.33;;;10.90;99.90;;;;;;4154560;28;20103;-66
2021/05/17 03:14:35;;;;;;;3.00;1.47;;;11.10;99.90;;;;;;4155812;28;20037;-62
2021/05/17 03:16:38;;;;;;;2.53;1.70;;;11.30;99.90;;;;;;4155124;28;20083;-63
2021/05/17 03:18:39;;;;;;;6.70;1.63;;;11.70;99.90;;;;;;4155287;28;21056;-64
2021/05/17 03:20:41;;;;;;;6.70;1.40;;;12.00;99.90;;;;;;4154948;28;20033;-60
2021/05/17 03:22:42;;;;;;;4.43;1.27;;;12.30;99.90;;;;;;4155127;28;20021;-63
2021/05/17 03:24:46;;;;;;;5.20;1.70;;;12.60;99.90;;;;;;4155339;28;20041;-63
2021/05/17 03:26:49;;;;;;;1.77;1.37;;;12.90;99.90;;;;;;4154793;28;20021;-63
2021/05/17 03:28:51;;;;;;;10.17;1.60;;;13.30;99.90;;;;;;4155653;28;20115;-61
2021/05/17 03:30:52;;;;;;;3.07;1.43;;;13.50;99.90;;;;;;4153917;28;20098;-62
2021/05/17 03:32:53;;;;;;;6.27;1.47;;;13.90;99.90;;;;;;4156333;28;20060;-62
2021/05/17 03:34:54;;;;;;;5.70;1.73;;;14.30;99.90;;;;;;4154444;28;20041;-63
2021/05/17 03:36:55;;;;;;;4.70;1.60;;;14.70;99.90;;;;;;4156157;28;20037;-66
2021/05/17 03:38:56;;;;;;;4.23;1.50;;;15.10;99.90;;;;;;4154246;28;20758;-63
2021/05/17 03:40:57;;;;;;;4.90;1.30;;;15.40;99.90;;;;;;4155791;28;20088;-64
2021/05/17 03:42:58;;;;;;;1.77;0.97;;;15.80;99.90;;;;;;4153509;28;20041;-62
2021/05/17 03:45:00;;;;;;;3.07;1.17;;;16.30;99.90;;;;;;4155531;28;20025;-63
2021/05/17 03:47:01;;;;;;;5.63;1.10;;;16.70;99.90;;;;;;4154261;28;20045;-63
2021/05/17 03:49:02;;;;;;;28.10;1.60;;;17.10;99.90;;;;;;4154790;28;20038;-63
2021/05/17 03:51:03;;;;;;;9.07;1.25;;;17.50;99.90;;;;;;4154225;28;20119;-63
2021/05/17 03:53:05;;;;;;;7.25;1.60;;;18.00;99.90;;;;;;4154406;28;20501;-62
2021/05/17 03:55:07;;;;;;;2.92;1.10;;;18.20;99.90;;;;;;4152893;28;20041;-63
2021/05/17 03:57:08;;;;;;;6.85;1.20;;;18.50;99.90;;;;;;4154043;28;20402;-64
2021/05/17 03:59:14;;;;;;;4.00;1.23;;;18.80;99.90;;;;;;4155002;28;20046;-63
2021/05/17 04:01:16;;;;;;;5.43;1.20;;;19.00;99.90;;;;;;4151310;28;20045;-63
2021/05/17 04:03:19;;;;;;;5.95;0.85;;;19.40;99.90;;;;;;4155542;28;20493;-63
2021/05/17 04:14:24;;;;;;;7.35;1.45;;;20.90;99.90;;;;;;4153851;28;20034;-62
2021/05/17 04:16:25;;;;;;;2.33;1.00;;;21.10;99.90;;;;;;4155311;28;20038;-63
2021/05/17 04:18:26;;;;;;;8.63;0.75;;;21.30;99.30;;;;;;4153713;28;20105;-70
2021/05/17 04:20:27;;;;;;;6.30;1.05;;;21.70;98.40;;;;;;4156205;28;20045;-65
2021/05/17 04:22:28;;;;;;;10.48;1.33;;;21.90;96.30;;;;;;4156487;28;20033;-63
2021/05/17 04:24:29;;;;;;;2.08;0.90;;;21.90;95.40;;;;;;4158817;28;20041;-68
2021/05/17 04:26:31;;;;;;;4.90;0.90;;;22.10;94.30;;;;;;4157367;28;20527;-68
2021/05/17 04:28:33;;;;;;;7.03;1.20;;;22.20;93.40;;;;;;4158738;28;20033;-63
2021/05/17 04:30:34;;;;;;;2.63;0.82;;;22.50;92.60;;;;;;4155846;28;20064;-65
2021/05/17 04:32:35;;;;;;;2.72;0.80;;;22.50;91.30;;;;;;4156722;28;20045;-67
2021/05/17 04:34:36;;;;;;;14.23;1.50;;;22.50;90.70;;;;;;4157203;28;20034;-65
2021/05/17 04:36:37;;;;;;;4.38;1.20;;;22.90;89.90;;;;;;4157975;28;20108;-64
2021/05/17 04:38:39;;;;;;;4.03;0.85;;;23.20;87.70;;;;;;4156701;28;20527;-65
2021/05/17 04:40:42;;;;;;;5.55;0.80;;;;;;;;;;4157141;28;20029;-64
2021/05/17 04:42:43;;;;;;;7.60;1.10;;;23.30;85.80;;;;;;4157896;28;20068;-62
2021/05/17 04:44:45;;;;;;;5.53;1.40;;;23.10;83.50;;;;;;4156362;28;20029;-63
2021/05/17 04:46:46;;;;;;;6.00;0.85;;;22.60;83.50;;;;;;4157753;28;20045;-63
2021/05/17 04:48:50;;;;;;;5.05;1.40;;;21.90;84.70;;;;;;4155840;28;20115;-63
2021/05/17 04:50:51;;;;;;;5.53;0.80;;;22.00;85.60;;;;;;4157177;28;20092;-64
2021/05/17 04:52:53;;;;;;;5.47;0.77;;;22.40;85.10;;;;;;4156308;28;20048;-64
2021/05/17 04:54:54;;;;;;;3.03;0.70;;;22.90;83.30;;;;;;4157480;28;20041;-60
2021/05/17 04:56:55;;;;;;;2.70;0.60;;;22.90;81.20;;;;;;4155797;28;20037;-64
2021/05/17 04:58:56;;;;;;;3.97;0.90;;;22.00;81.40;;;;;;4157816;28;20034;-61
2021/05/17 05:00:57;;;;;;;1.30;0.68;;;22.10;82.90;;;;;;4155621;28;20187;-64
2021/05/17 05:02:58;;;;;;;1.15;0.63;;;22.50;82.40;;;;;;4157320;28;20580;-61
2021/05/17 05:05:00;;;;;;;3.85;0.63;;;22.90;80.70;;;;;;4148283;28;20034;-64
2021/05/17 05:07:01;;;;;;;2.53;0.75;;;23.20;79.60;;;;;;4141364;28;20088;-65
2021/05/17 05:09:03;;;;;;;9.00;0.95;;;23.40;78.50;;;;;;4140097;28;20429;-65
2021/05/17 05:11:04;;;;;;;5.20;1.00;;;23.50;77.80;;;;;;4140365;28;20088;-65
2021/05/17 05:13:06;;;;;;;4.57;2.17;;;23.90;76.40;;;;;;4140726;28;20053;-65
2021/05/17 05:15:07;;;;;;;5.28;1.02;;;24.10;75.30;;;;;;4139915;28;20034;-64
2021/05/17 05:17:09;;;;;;;2.58;0.90;;;23.90;74.20;;;;;;4141008;28;20433;-63
2021/05/17 05:19:10;;;;;;;4.63;0.80;;;23.50;73.70;;;;;;4139750;28;20080;-64
2021/05/17 05:21:11;;;;;;;3.08;0.98;;;23.00;74.70;;;;;;4141303;28;20103;-63
2021/05/17 05:23:17;;;;;;;5.53;1.00;;;23.30;75.30;;;;;;4139898;28;20087;-65
2021/05/17 05:25:20;;;;;;;5.50;1.10;;;24.20;72.90;;;;;;4141395;28;20080;-66
2021/05/17 05:27:46;;;;;;;2.63;0.50;;;24.00;72.10;;;;;;4138876;28;20092;-64
2021/05/17 05:31:58;;;;;;;6.18;0.88;;;22.90;74.00;;;;;;4154791;28;20083;-69
2021/05/17 05:33:59;;;;;;;3.30;0.75;;;22.30;74.90;;;;;;4155236;28;20116;-66
2021/05/17 05:36:01;;;;;;;4.15;0.88;;;22.30;75.80;;;;;;4154856;28;20049;-70
2021/05/17 05:38:02;;;;;;;1.85;0.60;;;21.90;75.90;;;;;;4157532;28;20075;-64
2021/05/17 05:40:06;;;;;;;1.63;0.60;;;22.00;76.00;;;;;;4154330;28;20060;-63
2021/05/17 05:42:07;;;;;;;2.20;0.63;;;22.40;75.00;;;;;;4156786;28;20083;-66
2021/05/17 05:44:08;;;;;;;2.63;0.68;;;22.90;74.00;;;;;;4154556;28;20584;-65
2021/05/17 05:46:09;;;;;;;5.28;1.13;;;23.10;72.50;;;;;;4154658;28;20030;-69
2021/05/17 05:48:12;;;;;;;2.35;0.80;;;23.30;72.00;;;;;;4154749;28;20033;-65
2021/05/17 05:50:13;;;;;;;6.28;1.25;;;23.70;71.00;;;;;;4155969;28;20436;-64
2021/05/17 05:52:16;;;;;;;5.28;1.13;;;24.10;70.40;;;;;;4155553;28;20060;-66
2021/05/17 05:54:17;;;;;;;7.22;1.10;;;24.30;68.90;;;;;;4154147;28;20075;-68
2021/05/17 05:56:18;;;;;;;3.28;0.90;;;24.30;68.60;;;;;;4148510;28;20669;-69
2021/05/17 05:58:19;;;;;;;3.70;1.15;;;24.50;68.00;;;;;;4154835;28;20034;-62
2021/05/17 06:00:22;;;;;;;3.88;0.85;;;24.80;67.10;;;;;;4155107;28;20469;-68
2021/05/17 06:02:24;;;;;;;2.05;0.65;;;;;;;;;;4154721;28;20541;-64
2021/05/17 06:04:25;;;;;;;1.95;0.50;;;;;;;;;;4156931;28;20128;-64
2021/05/17 06:06:26;;;;;;;0.57;0.30;;;;;;;;;;4155222;28;20030;-65
2021/05/17 06:08:28;;;;;;;3.70;0.80;;;;;;;;;;4155749;28;20033;-64
2021/05/17 06:10:29;;;;;;;3.30;1.00;;;25.10;66.70;;;;;;4154472;28;20088;-63
2021/05/17 06:12:31;;;;;;;2.28;0.90;;;25.00;64.40;;;;;;4155678;28;20042;-63
2021/05/17 06:14:32;;;;;;;3.45;0.60;;;;;;;;;;4154062;28;20639;-68
2021/05/17 06:16:34;;;;;;;1.60;1.05;;;25.10;64.80;;;;;;4157360;28;20029;-64
2021/05/17 06:18:36;;;;;;;4.38;0.60;;;25.20;64.40;;;;;;4154421;28;20025;-63
2021/05/17 06:20:38;;;;;;;3.55;0.75;;;;;;;;;;4155394;28;20060;-62
2021/05/17 06:22:40;;;;;;;6.82;3.67;;;;;;;;;;4154181;28;20022;-65
2021/05/17 06:24:42;;;;;;;5.65;1.40;;;;;;;;;;4155022;28;20041;-64
2021/05/17 06:26:43;;;;;;;5.18;1.40;;;25.00;64.90;;;;;;4155221;28;20041;-62
2021/05/17 06:28:45;;;;;;;5.15;1.17;;;25.20;62.90;;;;;;4155071;28;20041;-63
2021/05/17 06:31:01;;;;;;;8.15;0.80;;;24.70;64.60;;;;;;4156420;28;20556;-62
2021/05/17 06:33:05;;;;;;;6.57;0.65;;;24.30;65.30;;;;;;4154023;28;20053;-63
2021/05/17 06:35:08;;;;;;;2.92;0.70;;;23.50;66.60;;;;;;4156648;28;20100;-64
2021/05/17 06:37:10;;;;;;;1.45;0.68;;;23.20;68.00;;;;;;4155121;28;20510;-63
2021/05/17 06:39:12;;;;;;;1.35;0.60;;;22.50;69.00;;;;;;4156168;28;20564;-64
2021/05/17 06:41:13;;;;;;;1.67;0.57;;;22.00;70.70;;;;;;4154901;28;20076;-61
2021/05/17 06:43:15;;;;;;;10.82;0.95;;;21.30;72.60;;;;;;4155534;28;20029;-64
2021/05/17 06:45:17;;;;;;;3.53;0.52;;;21.50;74.40;;;;;;4153574;28;20767;-64
2021/05/17 06:47:18;;;;;;;1.40;0.65;;;21.60;74.90;;;;;;4156249;28;20033;-68
2021/05/17 06:49:20;;;;;;;4.22;0.95;;;21.10;75.10;;;;;;4154110;28;20143;-68
2021/05/17 06:51:21;;;;;;;4.72;1.67;;;20.90;76.50;;;;;;4155780;28;20769;-69
2021/05/17 06:53:24;;;;;;;4.80;1.40;;;20.80;78.30;;;;;;4154167;28;20060;-66
2021/05/17 06:55:32;;;;;;;3.90;1.98;;;20.80;79.80;;;;;;4155413;28;20433;-67
2021/05/17 06:59:48;;;;;;;1.63;1.23;;;19.80;85.90;;;;;;4155719;28;20083;-66
2021/05/17 07:01:52;;;;;;;2.03;0.75;;;19.30;87.60;;;;;;4154093;28;20053;-69
2021/05/17 07:03:55;;;;;;;1.63;0.50;;;19.10;86.40;;;;;;4155645;28;20063;-64
2021/05/17 07:05:58;;;;;;;2.53;0.50;;;18.80;86.30;;;;;;4154761;28;20087;-64
2021/05/17 07:12:24;;;;;;;3.70;0.90;;;18.50;91.50;;;;;;4154941;28;20124;-64
2021/05/17 07:14:25;;;;;;;4.22;1.15;;;18.40;93.40;;;;;;4153740;28;20103;-64
2021/05/17 07:16:27;;;;;;;6.65;1.00;;;18.10;95.20;;;;;;4154694;28;20445;-66
2021/05/17 07:18:28;;;;;;;6.15;1.00;;;17.80;97.10;;;;;;4153799;28;20095;-70
2021/05/17 07:24:57;;;;;;;4.07;1.00;;;17.80;99.90;;;;;;4154438;28;20034;-70
2021/05/17 07:26:59;;;;;;;3.83;0.85;;;17.80;99.90;;;;;;4155248;28;20064;-64
2021/05/17 07:29:03;;;;;;;6.82;1.65;;;17.80;99.90;;;;;;4154300;28;20030;-66
2021/05/17 07:31:05;;;;;;;2.67;0.43;;;18.00;99.90;;;;;;4156411;28;20034;-69
2021/05/17 07:33:07;;;;;;;3.15;0.57;;;18.10;99.90;;;;;;4154313;28;21024;-64
2021/05/17 07:35:08;;;;;;;0.90;0.50;;;18.30;99.90;;;;;;4156182;28;20053;-64
2021/05/17 07:37:10;;;;;;;1.95;0.43;;;18.50;99.90;;;;;;4154102;28;20091;-68
2021/05/17 07:39:11;;;;;;;1.65;0.65;;;18.50;99.90;;;;;;4155059;28;20840;-69
2021/05/17 07:41:15;;;;;;;3.10;0.30;;;18.70;99.90;;;;;;4153944;28;20017;-67
2021/05/17 07:43:16;;;;;;;3.42;0.40;;;18.90;99.80;;;;;;4154594;28;20082;-66
2021/05/17 07:45:17;;;;;;;2.15;0.52;;;19.00;99.20;;;;;;4153779;28;20034;-66
2021/05/17 07:47:18;;;;;;;2.38;0.50;;;18.60;99.00;;;;;;4155417;28;20037;-63
2021/05/17 07:49:23;;;;;;;2.40;0.38;;;18.60;99.20;;;;;;4154125;28;20045;-63
2021/05/17 07:51:24;;;;;;;1.67;0.30;;;18.70;99.00;;;;;;4154817;28;20029;-64
2021/05/17 07:53:26;;;;;;;3.75;0.38;;;18.80;98.90;;;;;;4153957;28;20038;-63
2021/05/17 07:55:27;;;;;;;3.58;0.20;;;18.70;98.40;;;;;;4154656;28;20038;-63
2021/05/17 07:57:28;;;;;;;0.93;0.30;;;18.60;98.30;;;;;;4154954;28;20033;-64
2021/05/17 07:59:30;;;;;;;0.95;0.80;;;18.40;98.10;;;;;;4153823;28;20942;-64
2021/05/17 08:01:32;;;;;;;1.45;0.40;;;18.40;98.90;;;;;;4153401;28;20064;-63
2021/05/17 08:03:34;;;;;;;2.58;0.80;;;18.30;99.50;;;;;;4152217;28;20041;-66
2021/05/17 08:05:35;;;;;;;0.82;0.40;;;18.70;99.30;;;;;;4155946;28;20072;-68
2021/05/17 08:07:36;;;;;;;0.77;0.47;;;18.80;98.70;;;;;;4154098;28;20355;-70
2021/05/17 08:09:37;;;;;;;1.17;0.25;;;18.90;98.00;;;;;;4155504;28;20099;-63
2021/05/17 08:11:39;;;;;;;1.95;0.45;;;18.90;97.40;;;;;;4138654;28;20038;-65
2021/05/17 08:13:40;;;;;;;0.85;0.38;;;18.90;96.40;;;;;;4140116;28;20062;-67
2021/05/17 08:15:41;;;;;;;3.70;0.50;;;18.90;96.70;;;;;;4137848;28;20540;-64
2021/05/17 08:17:42;;;;;;;1.10;0.50;;;19.00;95.40;;;;;;4139354;28;20853;-63
2021/05/17 08:19:43;;;;;;;1.50;0.47;;;19.10;95.20;;;;;;4137947;28;20429;-67
2021/05/17 08:21:44;;;;;;;0.30;0.30;;;19.10;95.30;;;;;;4138993;28;20390;-63
2021/05/17 08:23:46;;;;;;;1.08;0.40;;;19.10;96.00;;;;;;4137611;28;20108;-63
2021/05/17 08:25:48;;;;;;;0.47;0.20;;;18.90;96.00;;;;;;4138031;28;20090;-70
2021/05/17 08:27:49;;;;;;;2.15;0.60;;;19.10;96.50;;;;;;4137947;28;20157;-64
2021/05/17 08:29:50;;;;;;;1.77;0.47;;;19.20;96.50;;;;;;4137670;28;20100;-64
2021/05/17 08:31:52;;;;;;;1.23;0.30;;;19.10;96.70;;;;;;4138257;28;20426;-67
2021/05/17 08:33:53;;;;;;;0.77;0.43;;;19.30;96.50;;;;;;4140685;28;20505;-64
2021/05/17 08:35:54;;;;;;;0.73;0.40;;;19.50;95.40;;;;;;4154656;28;20061;-63
2021/05/17 08:37:55;;;;;;;5.22;0.60;;;19.50;95.60;;;;;;4153527;28;20022;-67
2021/05/17 08:39:56;;;;;;;1.05;0.40;;;19.60;95.80;;;;;;4155145;28;20078;-63
2021/05/17 08:41:58;;;;;;;0.52;0.43;;;19.30;96.10;;;;;;4152741;28;20553;-64
2021/05/17 08:44:01;;;;;;;0.63;0.32;;;19.00;96.90;;;;;;4153505;28;20663;-68
2021/05/17 08:46:03;;;;;;;0.47;0.30;;;18.70;97.90;;;;;;4152896;28;20079;-69
2021/05/17 08:48:05;;;;;;;2.13;0.55;;;18.80;97.90;;;;;;4153622;28;20029;-63
2021/05/17 08:50:07;;;;;;;2.88;0.30;;;18.80;97.50;;;;;;4153699;28;20761;-63
2021/05/17 08:52:09;;;;;;;2.47;0.65;;;19.20;97.40;;;;;;4153439;28;20072;-62
2021/05/17 08:54:10;;;;;;;1.88;0.70;;;19.30;97.10;;;;;;4153711;28;20033;-64
2021/05/17 08:56:11;;;;;;;2.35;0.65;;;19.50;96.40;;;;;;4154670;28;20041;-62
2021/05/17 08:58:12;;;;;;;5.03;0.93;;;19.70;96.10;;;;;;4154547;28;20061;-62
2021/05/17 09:00:17;;;;;;;1.50;0.30;;;19.70;95.60;;;;;;4152973;28;20452;-65
2021/05/17 09:02:19;;;;;;;2.72;0.30;;;19.80;95.10;;;;;;4152896;28;20049;-64
2021/05/17 09:04:20;;;;;;;0.68;0.20;;;19.80;94.00;;;;;;4148497;28;20127;-66
2021/05/17 09:06:24;;;;;;;2.38;1.05;;;19.70;93.40;;;;;;4156002;28;20022;-65
2021/05/17 09:08:26;;;;;;;0.93;0.40;;;19.30;93.70;;;;;;4155803;28;20045;-65
2021/05/17 09:10:34;;;;;;;1.25;0.47;;;19.20;94.40;;;;;;4157198;28;20034;-68
2021/05/17 09:12:35;;;;;;;0.63;0.40;;;19.30;95.10;;;;;;4154296;28;20030;-65
2021/05/17 09:14:38;;;;;;;0.20;0.10;;;19.30;94.70;;;;;;4156802;28;20511;-64
2021/05/17 09:16:49;;;;;;;0.90;0.30;;;19.00;93.70;;;;;;4154497;28;20061;-67
2021/05/17 09:18:51;;;;;;;0.55;0.30;;;19.10;93.70;;;;;;4156845;28;20563;-63
2021/05/17 09:20:54;;;;;;;0.95;0.28;;;19.10;94.30;;;;;;4154473;28;20033;-63
2021/05/17 09:23:27;;;;;;;1.58;0.45;;;19.00;94.60;;;;;;4156479;28;20029;-62
2021/05/17 09:25:29;;;;;;;1.25;0.30;;;19.10;93.60;;;;;;4143211;28;20067;-62
2021/05/17 09:27:31;;;;;;;2.47;0.20;;;19.00;94.20;;;;;;4156436;28;20037;-63
2021/05/17 09:29:47;;;;;;;1.17;0.35;;;18.90;94.40;;;;;;4155258;28;20091;-63
2021/05/17 09:31:48;;;;;;;0.63;0.20;;;18.90;93.70;;;;;;4157007;28;20083;-62
2021/05/17 09:33:58;;;;;;;2.42;0.47;;;18.70;94.60;;;;;;4154741;28;20053;-63
2021/05/17 09:35:59;;;;;;;2.45;0.20;;;18.70;94.60;;;;;;4156695;28;20965;-67
2021/05/17 09:38:04;;;;;;;0.65;0.30;;;18.70;94.30;;;;;;4154567;28;20041;-64
2021/05/17 09:40:19;;;;;;;1.27;0.30;;;18.80;93.90;;;;;;4150578;28;20049;-65
2021/05/17 09:42:25;;;;;;;2.58;0.22;;;18.80;94.50;;;;;;4154287;28;20085;-65
2021/05/17 09:44:28;;;;;;;0.30;0.15;;;19.00;94.70;;;;;;4152155;28;20102;-64
2021/05/17 09:46:54;;;;;;;0.40;0.20;;;19.20;94.20;;;;;;4155324;28;20135;-63
2021/05/17 09:48:57;;;;;;;1.88;0.20;;;19.20;93.00;;;;;;4168435;28;20037;-62
2021/05/17 09:51:02;;;;;;;1.27;0.30;;;19.20;92.60;;;;;;4153650;28;20030;-63
2021/05/17 09:53:22;;;;;;;0.52;0.30;;;19.30;92.70;;;;;;4155558;28;20038;-63
2021/05/17 09:55:24;;;;;;;0.28;0.28;;;19.30;92.10;;;;;;4154695;28;20049;-62
2021/05/17 09:57:31;;;;;;;1.08;0.20;;;19.40;92.70;;;;;;4154908;28;20053;-63
2021/05/17 09:59:38;;;;;;;1.67;0.20;;;19.60;92.40;;;;;;4155397;28;20029;-62
2021/05/17 10:01:39;;;;;;;1.52;0.30;;;19.60;90.20;;;;;;4156937;28;20057;-63
2021/05/17 10:03:43;;;;;;;1.17;0.20;;;19.60;90.20;;;;;;4154936;28;20042;-62
2021/05/17 10:05:46;;;;;;;1.35;0.30;;;19.60;91.00;;;;;;4156579;28;20818;-63
2021/05/17 10:07:53;;;;;;;0.38;0.20;;;19.80;90.40;;;;;;4155066;28;21070;-62
2021/05/17 10:09:55;;;;;;;0.30;0.10;;;19.80;90.40;;;;;;4154573;28;20029;-66
2021/05/17 10:11:57;;;;;;;0.43;0.15;;;20.00;89.70;;;;;;4155162;28;20037;-64
2021/05/17 10:13:58;;;;;;;0.30;0.30;;;20.10;88.20;;;;;;4155757;28;20038;-68
2021/05/17 10:16:00;;;;;;;0.60;0.20;;;20.20;88.50;;;;;;4154204;28;20049;-70
2021/05/17 10:18:03;;;;;;;3.03;0.80;;;20.10;87.20;;;;;;4153794;28;20119;-66
2021/05/17 10:20:07;;;;;;;1.85;0.30;;;20.10;88.30;;;;;;4155498;28;20091;-63
2021/05/17 10:22:09;;;;;;;0.60;0.25;;;20.20;88.30;;;;;;4154810;28;20045;-62
2021/05/17 10:24:10;;;;;;;0.30;0.30;;;20.30;88.20;;;;;;4156232;28;20091;-64
2021/05/17 10:26:31;;;;;;;1.10;0.20;;;20.20;87.30;;;;;;4154335;28;20095;-63
2021/05/17 10:28:34;;;;;;;0.82;0.25;;;20.20;86.70;;;;;;4154900;28;20115;-63
2021/05/17 10:30:37;;;;;;;2.90;0.22;;;20.10;85.70;;;;;;4152976;28;20075;-63
2021/05/17 10:32:45;;;;;;;1.35;0.57;;;20.20;85.50;;;;;;4155836;28;20853;-62
2021/05/17 10:35:07;;;;;;;1.38;0.30;;;20.20;85.30;;;;;;4153152;28;20143;-65
2021/05/17 10:37:17;;;;;;;0.10;0.10;;;20.40;86.10;;;;;;4155749;28;20474;-67
2021/05/17 10:39:28;;;;;;;1.33;0.20;;;20.30;82.80;;;;;;4153025;28;20041;-69
2021/05/17 10:41:49;;;;;;;0.25;0.13;;;20.20;82.40;;;;;;4154802;28;20436;-63
2021/05/17 10:48:31;;;;;;;1.42;0.50;;;20.30;86.20;;;;;;4154343;28;20088;-63
2021/05/17 10:50:32;;;;;;;0.22;0.20;;;20.20;85.90;;;;;;4151015;28;20025;-62
2021/05/17 10:52:35;;;;;;;1.02;0.45;;;20.00;85.10;;;;;;4154745;28;20056;-63
2021/05/17 10:54:42;;;;;;;0.20;0.20;;;19.80;84.70;;;;;;4139421;28;20092;-62
2021/05/17 11:01:26;;;;;;;0.70;0.20;;;19.50;86.70;;;;;;4145130;28;20184;-62
2021/05/17 11:03:27;;;;;;;2.83;0.30;;;19.80;87.00;;;;;;4155480;28;20041;-62
2021/05/17 11:05:31;;;;;;;1.42;0.17;;;19.80;87.50;;;;;;4153279;28;20119;-63
2021/05/17 11:07:52;;;;;;;0.80;0.32;;;20.00;85.20;;;;;;4151116;28;20483;-62
2021/05/17 11:10:08;;;;;;;1.45;0.32;;;19.90;77.60;;;;;;4154654;28;20095;-64
2021/05/17 11:12:28;;;;;;;7.43;0.70;;;19.90;82.20;;;;;;4154268;28;20099;-62
2021/05/17 11:14:31;;;;;;;7.57;0.65;;;19.70;84.10;;;;;;4154923;28;20038;-62